createdAt,value
2019-03-09T00:01:02.368Z,7.00
2019-03-09T00:03:31.576Z,7.00
2019-03-09T00:06:00.637Z,7.10
2019-03-09T00:08:29.770Z,7.10
2019-03-09T00:10:58.757Z,7.10
2019-03-09T00:13:27.737Z,7.10
2019-03-09T00:15:56.822Z,7.10
2019-03-09T00:18:25.933Z,7.20
2019-03-09T00:20:55.063Z,7.20
2019-03-09T00:23:46.166Z,7.20
2019-03-09T00:26:32.172Z,7.20
2019-03-09T00:29:23.715Z,7.10
2019-03-09T00:32:05.035Z,7.10
2019-03-09T00:34:34.099Z,7.10
2019-03-09T00:37:03.282Z,7.10
2019-03-09T00:39:32.373Z,7.10
2019-03-09T00:42:01.507Z,7.10
2019-03-09T00:44:30.600Z,7.10
2019-03-09T00:46:59.876Z,7.10
2019-03-09T00:49:28.908Z,7.10
2019-03-09T00:51:57.966Z,7.00
2019-03-09T00:54:27.021Z,7.00
2019-03-09T00:56:56.106Z,7.00
2019-03-09T00:59:25.089Z,7.00
2019-03-09T01:01:54.141Z,7.00
2019-03-09T01:04:23.210Z,7.10
2019-03-09T01:06:52.241Z,7.10
2019-03-09T01:09:21.672Z,7.10
2019-03-09T01:11:50.803Z,7.10
2019-03-09T01:14:23.489Z,7.10
2019-03-09T01:16:52.935Z,7.00
2019-03-09T01:19:22.077Z,7.00
2019-03-09T01:21:51.488Z,6.90
2019-03-09T01:24:20.718Z,7.00
2019-03-09T01:26:49.944Z,7.00
2019-03-09T01:29:18.972Z,7.00
2019-03-09T01:31:48.115Z,7.00
2019-03-09T01:34:17.193Z,6.90
2019-03-09T01:36:46.177Z,6.90
2019-03-09T01:39:15.218Z,6.90
2019-03-09T01:41:44.274Z,6.80
2019-03-09T01:44:13.353Z,6.80
2019-03-09T01:46:42.443Z,6.80
2019-03-09T01:49:11.523Z,6.80
2019-03-09T01:51:40.758Z,6.90
2019-03-09T01:54:09.889Z,6.90
2019-03-09T01:56:39.140Z,6.90
2019-03-09T01:59:08.228Z,6.90
2019-03-09T02:01:37.293Z,6.80
2019-03-09T02:04:06.461Z,6.80
2019-03-09T02:06:35.471Z,6.80
2019-03-09T02:09:06.327Z,6.70
2019-03-09T02:11:38.139Z,6.70
2019-03-09T02:14:07.334Z,6.70
2019-03-09T02:16:36.411Z,6.70
2019-03-09T02:19:05.497Z,6.70
2019-03-09T02:21:34.572Z,6.70
2019-03-09T02:24:03.892Z,6.70
2019-03-09T02:26:33.075Z,6.70
2019-03-09T02:29:02.203Z,6.70
2019-03-09T02:31:31.420Z,6.60
2019-03-09T02:34:00.590Z,6.60
2019-03-09T02:36:29.867Z,6.60
2019-03-09T02:39:21.210Z,6.60
2019-03-09T02:41:50.525Z,6.60
2019-03-09T02:44:19.541Z,6.60
2019-03-09T02:46:48.603Z,6.60
2019-03-09T02:49:17.575Z,6.60
2019-03-09T02:51:46.752Z,6.60
2019-03-09T02:54:15.760Z,6.50
2019-03-09T02:56:44.857Z,6.50
2019-03-09T02:59:14.070Z,6.50
2019-03-09T03:02:17.296Z,6.40
2019-03-09T03:04:46.490Z,6.50
2019-03-09T03:07:15.714Z,6.40
2019-03-09T03:09:44.864Z,6.40
2019-03-09T03:12:13.956Z,6.40
2019-03-09T03:14:43.009Z,6.30
2019-03-09T03:17:12.097Z,6.30
2019-03-09T03:19:41.176Z,6.30
2019-03-09T03:22:10.539Z,6.30
2019-03-09T03:24:39.547Z,6.30
2019-03-09T03:27:09.741Z,6.30
2019-03-09T03:29:38.987Z,6.30
2019-03-09T03:32:21.684Z,6.30
2019-03-09T03:34:50.956Z,6.30
2019-03-09T03:37:20.164Z,6.30
2019-03-09T03:39:49.420Z,6.30
2019-03-09T03:42:18.516Z,6.30
2019-03-09T03:44:47.935Z,6.30
2019-03-09T03:47:17.757Z,6.30
2019-03-09T03:49:47.057Z,6.30
2019-03-09T03:52:16.188Z,6.30
2019-03-09T03:54:45.623Z,6.30
2019-03-09T03:57:15.144Z,6.40
2019-03-09T03:59:47.393Z,6.40
2019-03-09T04:02:16.933Z,6.40
2019-03-09T04:04:46.664Z,6.50
2019-03-09T04:07:15.913Z,6.50
2019-03-09T04:09:45.235Z,6.50
2019-03-09T04:12:14.487Z,6.50
2019-03-09T04:14:44.574Z,6.50
2019-03-09T04:17:13.955Z,6.50
2019-03-09T04:19:44.921Z,6.60
2019-03-09T04:22:14.300Z,6.60
2019-03-09T04:24:43.787Z,6.60
2019-03-09T04:27:13.218Z,6.60
2019-03-09T04:29:42.640Z,6.70
2019-03-09T04:32:12.121Z,6.70
2019-03-09T04:34:41.617Z,6.80
2019-03-09T04:37:10.767Z,6.80
2019-03-09T04:39:40.316Z,6.90
2019-03-09T04:42:09.838Z,6.90
2019-03-09T04:44:39.184Z,6.90
2019-03-09T04:47:08.532Z,7.00
2019-03-09T04:49:38.258Z,7.00
2019-03-09T04:52:07.419Z,7.00
2019-03-09T04:54:36.670Z,7.10
2019-03-09T04:57:06.268Z,7.10
2019-03-09T04:59:35.264Z,7.10
2019-03-09T05:02:04.795Z,7.10
2019-03-09T05:04:51.851Z,7.20
2019-03-09T05:07:39.189Z,7.30
2019-03-09T05:10:38.966Z,7.30
2019-03-09T05:13:15.044Z,7.30
2019-03-09T05:15:44.305Z,7.40
2019-03-09T05:18:13.583Z,7.40
2019-03-09T05:20:42.691Z,7.40
2019-03-09T05:23:13.066Z,7.50
2019-03-09T05:25:42.320Z,7.50
2019-03-09T05:28:11.642Z,7.60
2019-03-09T05:30:42.231Z,7.60
2019-03-09T05:33:11.418Z,7.60
2019-03-09T05:35:40.956Z,7.60
2019-03-09T05:38:10.512Z,7.60
2019-03-09T05:40:39.932Z,7.60
2019-03-09T05:43:09.177Z,7.60
2019-03-09T05:45:38.312Z,7.60
2019-03-09T05:48:07.969Z,7.70
2019-03-09T05:50:37.221Z,7.70
2019-03-09T05:53:09.386Z,7.70
2019-03-09T05:55:38.886Z,7.70
2019-03-09T05:58:08.392Z,7.60
2019-03-09T06:00:38.866Z,7.50
2019-03-09T06:03:08.309Z,7.50
2019-03-09T06:06:04.839Z,7.50
2019-03-09T06:08:36.738Z,7.50
2019-03-09T06:11:06.603Z,7.50
2019-03-09T06:13:38.811Z,7.50
2019-03-09T06:16:08.061Z,7.50
2019-03-09T06:18:37.227Z,7.50
2019-03-09T06:21:06.339Z,7.60
2019-03-09T06:23:35.306Z,7.50
2019-03-09T06:26:04.483Z,7.50
2019-03-09T06:28:33.639Z,7.50
2019-03-09T06:31:02.714Z,7.50
2019-03-09T06:33:36.084Z,7.50
2019-03-09T06:36:38.378Z,7.50
2019-03-09T06:39:16.076Z,7.50
2019-03-09T06:42:30.537Z,7.60
2019-03-09T06:44:59.584Z,7.60
2019-03-09T06:47:28.727Z,7.80
2019-03-09T06:49:57.833Z,7.80
2019-03-09T06:52:26.904Z,7.90
2019-03-09T06:54:56.001Z,8.10
2019-03-09T06:57:25.069Z,8.20
2019-03-09T06:59:54.155Z,8.10
2019-03-09T07:02:23.219Z,8.00
2019-03-09T07:04:52.316Z,8.00
2019-03-09T07:07:21.471Z,8.00
2019-03-09T07:09:50.551Z,8.00
2019-03-09T07:12:19.599Z,8.10
2019-03-09T07:15:23.815Z,8.10
2019-03-09T07:17:58.219Z,8.20
2019-03-09T07:20:27.301Z,8.20
2019-03-09T07:22:56.348Z,8.20
2019-03-09T07:25:25.387Z,8.20
2019-03-09T07:28:14.721Z,8.30
2019-03-09T07:30:43.814Z,8.40
2019-03-09T07:33:12.894Z,8.50
2019-03-09T07:35:42.037Z,8.50
2019-03-09T07:38:11.187Z,8.50
2019-03-09T07:40:40.364Z,8.50
2019-03-09T07:43:09.434Z,8.40
2019-03-09T07:45:38.527Z,8.50
2019-03-09T07:48:07.593Z,8.50
2019-03-09T07:50:36.645Z,8.50
2019-03-09T07:53:05.792Z,8.50
2019-03-09T07:55:34.872Z,8.50
2019-03-09T07:58:05.567Z,8.50
2019-03-09T08:00:34.796Z,8.50
2019-03-09T08:03:03.912Z,8.70
2019-03-09T08:05:32.982Z,8.80
2019-03-09T08:08:02.044Z,8.90
2019-03-09T08:10:31.153Z,9.10
2019-03-09T08:13:00.134Z,9.10
2019-03-09T08:15:29.210Z,9.10
2019-03-09T08:17:58.180Z,9.00
2019-03-09T08:20:27.250Z,9.00
2019-03-09T08:22:56.294Z,9.00
2019-03-09T08:25:25.530Z,8.90
2019-03-09T08:27:54.663Z,8.90
2019-03-09T08:30:24.107Z,9.00
2019-03-09T08:32:53.094Z,9.20
2019-03-09T08:35:22.236Z,9.60
2019-03-09T08:37:52.238Z,9.90
2019-03-09T08:40:21.544Z,9.90
2019-03-09T08:42:50.621Z,9.90
2019-03-09T08:45:19.800Z,9.90
2019-03-09T08:47:52.482Z,9.70
2019-03-09T08:50:21.060Z,9.60
2019-03-09T08:52:50.193Z,9.50
2019-03-09T08:55:19.426Z,9.40
2019-03-09T08:57:48.588Z,9.40
2019-03-09T09:00:22.187Z,9.30
2019-03-09T09:02:51.275Z,9.30
2019-03-09T09:05:20.349Z,9.30
2019-03-09T09:07:49.462Z,9.30
2019-03-09T09:10:18.516Z,9.20
2019-03-09T09:12:47.594Z,9.20
2019-03-09T09:15:16.672Z,9.20
2019-03-09T09:17:45.716Z,9.20
2019-03-09T09:20:16.434Z,9.20
2019-03-09T09:22:45.598Z,9.20
2019-03-09T09:25:14.777Z,9.30
2019-03-09T09:27:43.886Z,9.30
2019-03-09T09:30:18.586Z,9.40
2019-03-09T09:32:47.643Z,9.40
2019-03-09T09:35:16.951Z,9.40
2019-03-09T09:37:46.058Z,9.40
2019-03-09T09:40:17.604Z,9.40
2019-03-09T09:42:46.709Z,9.50
2019-03-09T09:45:15.852Z,9.50
2019-03-09T09:47:44.915Z,9.50
2019-03-09T09:50:14.200Z,9.50
2019-03-09T09:52:43.279Z,9.50
2019-03-09T09:55:13.604Z,9.50
2019-03-09T09:57:42.699Z,9.60
2019-03-09T10:00:17.176Z,9.60
2019-03-09T10:02:46.368Z,9.70
2019-03-09T10:05:15.411Z,9.70
2019-03-09T10:07:44.566Z,9.80
2019-03-09T10:10:15.302Z,10.00
2019-03-09T10:12:46.964Z,10.20
2019-03-09T10:15:21.097Z,10.50
2019-03-09T10:17:50.181Z,10.60
2019-03-09T10:20:19.389Z,10.60
2019-03-09T10:22:48.611Z,10.60
2019-03-09T10:25:17.669Z,10.50
2019-03-09T10:27:46.763Z,10.50
2019-03-09T10:30:17.967Z,10.50
2019-03-09T10:32:47.150Z,10.50
2019-03-09T10:35:16.191Z,10.50
2019-03-09T10:37:45.348Z,10.50
2019-03-09T10:40:14.644Z,10.60
2019-03-09T10:42:43.813Z,10.60
2019-03-09T10:45:13.123Z,10.70
2019-03-09T10:47:43.947Z,10.60
2019-03-09T10:50:14.011Z,10.60
2019-03-09T10:52:43.180Z,10.70
2019-03-09T10:55:14.810Z,10.70
2019-03-09T10:57:44.506Z,10.80
2019-03-09T11:00:19.431Z,10.90
2019-03-09T11:02:48.712Z,10.90
2019-03-09T11:05:17.851Z,10.90
2019-03-09T11:07:47.095Z,10.80
2019-03-09T11:10:16.185Z,10.80
2019-03-09T11:12:45.301Z,10.80
2019-03-09T11:15:14.547Z,10.80
2019-03-09T11:17:43.638Z,10.90
2019-03-09T11:20:13.553Z,11.00
2019-03-09T11:22:42.660Z,11.10
2019-03-09T11:25:12.106Z,11.20
2019-03-09T11:27:41.279Z,11.40
2019-03-09T11:30:16.294Z,11.30
2019-03-09T11:32:45.377Z,11.30
2019-03-09T11:35:14.616Z,11.40
2019-03-09T11:37:43.759Z,11.30
2019-03-09T11:40:15.947Z,11.30
2019-03-09T11:42:47.564Z,11.30
2019-03-09T11:45:17.414Z,11.40
2019-03-09T11:47:46.517Z,11.40
2019-03-09T11:50:16.049Z,11.50
2019-03-09T11:52:45.332Z,11.60
2019-03-09T11:55:14.573Z,11.60
2019-03-09T11:57:43.770Z,11.60
2019-03-09T12:00:15.868Z,11.70
2019-03-09T12:02:44.971Z,11.80
2019-03-09T12:05:14.099Z,12.00
2019-03-09T12:07:43.298Z,12.20
2019-03-09T12:10:12.588Z,12.40
2019-03-09T12:12:41.855Z,12.40
2019-03-09T12:15:11.092Z,12.40
2019-03-09T12:17:40.406Z,12.20
2019-03-09T12:20:09.625Z,12.10
2019-03-09T12:22:38.759Z,12.20
2019-03-09T12:25:08.608Z,12.40
2019-03-09T12:27:37.741Z,12.50
2019-03-09T12:30:08.275Z,12.50
2019-03-09T12:32:37.543Z,12.60
2019-03-09T12:35:06.771Z,12.60
2019-03-09T12:37:35.892Z,12.70
2019-03-09T12:40:05.400Z,12.80
2019-03-09T12:42:34.534Z,12.70
2019-03-09T12:45:03.750Z,12.50
2019-03-09T12:47:32.843Z,12.40
2019-03-09T12:50:01.951Z,12.10
2019-03-09T12:52:31.060Z,11.70
2019-03-09T12:54:59.946Z,11.50
2019-03-09T12:57:29.028Z,11.40
2019-03-09T12:59:58.205Z,11.40
2019-03-09T13:02:27.240Z,11.60
2019-03-09T13:04:56.469Z,11.70
2019-03-09T13:07:25.548Z,11.90
2019-03-09T13:09:54.620Z,11.90
2019-03-09T13:12:23.777Z,11.70
2019-03-09T13:14:52.779Z,11.60
2019-03-09T13:17:21.820Z,11.60
2019-03-09T13:19:50.821Z,11.50
2019-03-09T13:22:19.907Z,11.50
2019-03-09T13:24:49.054Z,11.50
2019-03-09T13:27:18.286Z,11.60
2019-03-09T13:29:47.439Z,11.60
2019-03-09T13:32:16.777Z,11.70
2019-03-09T13:34:45.858Z,11.70
2019-03-09T13:37:15.106Z,11.60
2019-03-09T13:39:44.188Z,11.50
2019-03-09T13:42:13.329Z,11.40
2019-03-09T13:44:53.697Z,11.30
2019-03-09T13:47:23.600Z,11.30
2019-03-09T13:49:52.788Z,11.20
2019-03-09T13:52:21.886Z,11.20
2019-03-09T13:54:50.996Z,11.10
2019-03-09T13:57:20.187Z,11.00
2019-03-09T13:59:49.297Z,11.00
2019-03-09T14:02:18.583Z,11.00
2019-03-09T14:04:47.667Z,10.90
2019-03-09T14:07:16.943Z,10.80
2019-03-09T14:09:45.974Z,10.70
2019-03-09T14:12:15.050Z,10.60
2019-03-09T14:14:44.303Z,10.60
2019-03-09T14:17:13.422Z,10.50
2019-03-09T14:19:42.457Z,10.50
2019-03-09T14:22:11.553Z,10.50
2019-03-09T14:24:40.673Z,10.20
2019-03-09T14:27:09.738Z,9.60
2019-03-09T14:29:38.720Z,8.70
2019-03-09T14:32:07.785Z,8.40
2019-03-09T14:34:36.817Z,8.20
2019-03-09T14:37:05.889Z,8.30
2019-03-09T14:39:34.967Z,8.30
2019-03-09T14:42:03.937Z,8.30
2019-03-09T14:44:32.985Z,8.50
2019-03-09T14:47:02.059Z,8.80
2019-03-09T14:49:31.079Z,9.50
2019-03-09T14:52:00.332Z,10.20
2019-03-09T14:54:29.312Z,10.30
2019-03-09T14:56:58.354Z,10.30
2019-03-09T14:59:27.377Z,10.10
2019-03-09T15:01:56.444Z,9.90
2019-03-09T15:04:25.666Z,9.60
2019-03-09T15:06:54.956Z,9.40
2019-03-09T15:09:24.198Z,9.30
2019-03-09T15:11:53.322Z,9.30
2019-03-09T15:14:22.576Z,9.30
2019-03-09T15:16:51.752Z,9.30
2019-03-09T15:19:20.830Z,9.20
2019-03-09T15:21:49.908Z,9.20
2019-03-09T15:24:19.032Z,9.10
2019-03-09T15:26:48.095Z,9.10
2019-03-09T15:29:21.777Z,9.10
2019-03-09T15:31:50.811Z,9.10
2019-03-09T15:34:19.904Z,9.10
2019-03-09T15:36:48.855Z,9.00
2019-03-09T15:39:17.835Z,8.90
2019-03-09T15:41:46.946Z,8.80
2019-03-09T15:44:15.956Z,8.50
2019-03-09T15:46:45.126Z,8.30
2019-03-09T15:49:14.115Z,7.80
2019-03-09T15:51:43.129Z,7.50
2019-03-09T15:54:12.236Z,7.50
2019-03-09T15:56:41.322Z,7.50
2019-03-09T15:59:10.443Z,7.60
2019-03-09T16:01:39.500Z,7.60
2019-03-09T16:04:08.595Z,7.50
2019-03-09T16:06:37.689Z,7.40
2019-03-09T16:09:07.325Z,7.30
2019-03-09T16:11:44.602Z,7.10
2019-03-09T16:14:07.275Z,6.90
2019-03-09T16:16:36.285Z,6.70
2019-03-09T16:19:05.334Z,6.60
2019-03-09T16:21:34.495Z,6.50
2019-03-09T16:24:03.564Z,6.40
2019-03-09T16:26:32.664Z,6.20
2019-03-09T16:29:01.811Z,6.00
2019-03-09T16:31:31.126Z,6.00
2019-03-09T16:34:00.311Z,6.20
2019-03-09T16:36:31.197Z,6.60
2019-03-09T16:39:00.367Z,6.90
2019-03-09T16:41:29.689Z,7.10
2019-03-09T16:43:58.680Z,7.20
2019-03-09T16:46:27.871Z,7.30
2019-03-09T16:48:57.119Z,7.30
2019-03-09T16:51:26.261Z,7.00
2019-03-09T16:53:55.341Z,6.80
2019-03-09T16:56:24.431Z,6.70
2019-03-09T16:58:53.532Z,6.60
2019-03-09T17:01:22.685Z,6.60
2019-03-09T17:03:51.964Z,6.60
2019-03-09T17:06:21.104Z,6.60
2019-03-09T17:08:50.136Z,6.60
2019-03-09T17:11:19.135Z,6.60
2019-03-09T17:13:48.224Z,6.70
2019-03-09T17:16:17.197Z,6.70
2019-03-09T17:18:46.262Z,6.70
2019-03-09T17:21:15.387Z,6.70
2019-03-09T17:23:44.512Z,6.70
2019-03-09T17:26:13.612Z,6.70
2019-03-09T17:28:42.702Z,6.70
2019-03-09T17:31:11.794Z,6.80
2019-03-09T17:33:40.956Z,6.80
2019-03-09T17:36:10.105Z,6.90
2019-03-09T17:38:39.206Z,7.00
2019-03-09T17:41:08.321Z,7.00
2019-03-09T17:43:37.394Z,7.00
2019-03-09T17:46:06.496Z,6.90
2019-03-09T17:48:35.492Z,7.00
2019-03-09T17:51:04.698Z,6.90
2019-03-09T17:53:33.836Z,6.90
2019-03-09T17:56:02.897Z,6.90
2019-03-09T17:58:31.940Z,6.90
2019-03-09T18:01:01.117Z,6.90
2019-03-09T18:03:30.435Z,6.90
2019-03-09T18:05:59.574Z,6.90
2019-03-09T18:08:28.715Z,6.90
2019-03-09T18:11:00.397Z,6.90
2019-03-09T18:13:29.511Z,6.90
2019-03-09T18:15:58.591Z,6.90
2019-03-09T18:18:27.725Z,6.90
2019-03-09T18:20:56.777Z,6.90
2019-03-09T18:23:25.944Z,7.00
2019-03-09T18:25:55.013Z,7.00
2019-03-09T18:28:24.089Z,7.00
2019-03-09T18:30:53.219Z,6.90
2019-03-09T18:33:22.301Z,6.90
2019-03-09T18:35:51.425Z,6.80
2019-03-09T18:38:20.528Z,6.80
2019-03-09T18:40:49.981Z,6.70
2019-03-09T18:43:19.185Z,6.60
2019-03-09T18:45:48.291Z,6.60
2019-03-09T18:48:17.506Z,6.50
2019-03-09T18:50:46.600Z,6.40
2019-03-09T18:53:15.595Z,6.40
2019-03-09T18:55:44.721Z,6.30
2019-03-09T18:58:13.876Z,6.20
2019-03-09T19:00:43.007Z,6.20
2019-03-09T19:03:12.296Z,6.20
2019-03-09T19:05:41.463Z,6.20
2019-03-09T19:08:10.687Z,6.10
2019-03-09T19:10:40.103Z,6.10
2019-03-09T19:13:09.199Z,6.10
2019-03-09T19:15:38.454Z,6.00
2019-03-09T19:18:07.531Z,6.00
2019-03-09T19:20:36.742Z,6.00
2019-03-09T19:23:05.780Z,5.90
2019-03-09T19:25:35.266Z,5.80
2019-03-09T19:28:04.560Z,5.90
2019-03-09T19:30:33.855Z,5.90
2019-03-09T19:33:03.075Z,5.90
2019-03-09T19:35:32.287Z,5.90
2019-03-09T19:38:01.593Z,5.80
2019-03-09T19:40:30.790Z,5.90
2019-03-09T19:42:59.981Z,5.80
2019-03-09T19:45:29.145Z,5.80
2019-03-09T19:47:58.219Z,5.80
2019-03-09T19:50:27.357Z,5.80
2019-03-09T19:52:58.834Z,5.80
2019-03-09T19:55:27.626Z,5.80
2019-03-09T19:57:56.919Z,5.70
2019-03-09T20:00:26.068Z,5.70
2019-03-09T20:02:55.351Z,5.60
2019-03-09T20:05:24.665Z,5.60
2019-03-09T20:07:53.870Z,5.60
2019-03-09T20:10:23.101Z,5.60
2019-03-09T20:12:52.185Z,5.50
2019-03-09T20:15:21.489Z,5.60
2019-03-09T20:17:50.649Z,5.60
2019-03-09T20:20:19.980Z,5.60
2019-03-09T20:22:49.361Z,5.50
2019-03-09T20:25:18.466Z,5.50
2019-03-09T20:27:47.555Z,5.50
2019-03-09T20:30:17.991Z,5.60
2019-03-09T20:32:47.179Z,5.50
2019-03-09T20:35:16.411Z,5.50
2019-03-09T20:37:45.595Z,5.40
2019-03-09T20:40:15.109Z,5.40
2019-03-09T20:42:44.550Z,5.40
2019-03-09T20:45:14.862Z,5.30
2019-03-09T20:47:44.299Z,5.30
2019-03-09T20:50:14.334Z,5.40
2019-03-09T20:52:43.680Z,5.40
2019-03-09T20:55:12.829Z,5.40
2019-03-09T20:57:42.061Z,5.40
2019-03-09T21:00:13.917Z,5.40
2019-03-09T21:02:43.228Z,5.40
2019-03-09T21:05:12.464Z,5.40
2019-03-09T21:07:41.688Z,5.40
2019-03-09T21:10:12.065Z,5.40
2019-03-09T21:12:58.856Z,5.50
2019-03-09T21:15:27.953Z,5.50
2019-03-09T21:17:57.193Z,5.50
2019-03-09T21:20:26.347Z,5.60
2019-03-09T21:22:55.573Z,5.60
2019-03-09T21:25:24.729Z,5.50
2019-03-09T21:27:53.847Z,5.50
2019-03-09T21:30:22.890Z,5.50
2019-03-09T21:32:51.917Z,5.60
2019-03-09T21:35:21.075Z,5.60
2019-03-09T21:37:50.263Z,5.60
2019-03-09T21:40:19.514Z,5.60
2019-03-09T21:42:48.556Z,5.60
2019-03-09T21:45:20.768Z,5.50
2019-03-09T21:47:50.033Z,5.50
2019-03-09T21:50:19.457Z,5.60
2019-03-09T21:52:48.623Z,5.50
2019-03-09T21:55:18.083Z,5.50
2019-03-09T21:57:47.187Z,5.60
2019-03-09T22:00:16.504Z,5.60
2019-03-09T22:02:45.654Z,5.60
2019-03-09T22:05:14.860Z,5.70
2019-03-09T22:07:43.975Z,5.70
2019-03-09T22:10:13.179Z,5.70
2019-03-09T22:12:42.255Z,5.70
2019-03-09T22:15:11.667Z,5.70
2019-03-09T22:17:40.891Z,5.80
2019-03-09T22:20:10.303Z,5.80
2019-03-09T22:22:41.438Z,5.90
2019-03-09T22:25:10.626Z,5.90
2019-03-09T22:27:42.140Z,5.90
2019-03-09T22:30:12.127Z,5.90
2019-03-09T22:32:41.320Z,6.00
2019-03-09T22:35:11.615Z,6.10
2019-03-09T22:37:40.984Z,6.00
2019-03-09T22:40:10.656Z,6.10
2019-03-09T22:42:42.094Z,6.10
2019-03-09T22:45:11.452Z,6.20
2019-03-09T22:47:40.874Z,6.20
2019-03-09T22:50:11.628Z,6.20
2019-03-09T22:52:41.122Z,6.20
2019-03-09T22:55:10.886Z,6.20
2019-03-09T22:57:43.273Z,6.20
2019-03-09T23:00:14.620Z,6.30
2019-03-09T23:02:44.863Z,6.30
2019-03-09T23:05:14.664Z,6.30
2019-03-09T23:07:43.938Z,6.30
2019-03-09T23:10:14.493Z,6.40
2019-03-09T23:12:43.719Z,6.40
2019-03-09T23:15:13.853Z,6.60
2019-03-09T23:17:43.173Z,6.60
2019-03-09T23:20:12.730Z,6.70
2019-03-09T23:22:44.185Z,6.70
2019-03-09T23:25:13.564Z,6.70
2019-03-09T23:27:42.794Z,6.70
2019-03-09T23:30:14.391Z,6.70
2019-03-09T23:32:54.014Z,6.70
2019-03-09T23:35:23.209Z,6.70
2019-03-09T23:37:52.320Z,6.70
2019-03-09T23:40:21.538Z,6.70
2019-03-09T23:42:50.712Z,6.70
2019-03-09T23:45:19.905Z,6.70
2019-03-09T23:47:49.098Z,6.80
2019-03-09T23:50:19.101Z,6.80
2019-03-09T23:52:48.639Z,6.80
2019-03-09T23:55:22.532Z,6.80
2019-03-09T23:57:49.386Z,6.80
